Time;durP1;ratioP1;P1;durP2;ratioP2;P2;SDS_P1;SDS_P2;PMS_P1;PMS_P2;Temp;Humidity;BMP_temperature;BMP_pressure;BME280_temperature;BME280_humidity;BME280_pressure;Samples;Min_cycle;Max_cycle;Signal;HPM_P1;HPM_P2
2022/11/04 00:01:52;;;;;;;2.25;0.90;;;10.70;99.90;;;;;;5071381;28;20036;-66
2022/11/04 00:04:24;;;;;;;3.53;0.70;;;10.70;99.90;;;;;;5072006;28;20060;-67
2022/11/04 00:06:56;;;;;;;1.70;0.70;;;10.60;99.90;;;;;;5073783;28;20490;-67
2022/11/04 00:09:27;;;;;;;2.78;0.80;;;10.60;99.90;;;;;;5057208;28;20043;-68
2022/11/04 00:14:40;;;;;;;2.63;0.60;;;10.60;99.90;;;;;;5074232;28;20133;-67
2022/11/04 00:17:18;;;;;;;2.63;0.50;;;10.50;99.90;;;;;;5073725;28;20052;-68
2022/11/04 00:33:56;;;;;;;5.50;0.63;;;10.50;99.90;;;;;;5073887;28;20060;-68
2022/11/04 00:36:25;;;;;;;3.70;0.43;;;10.50;99.90;;;;;;5071543;28;20036;-68
2022/11/04 00:38:53;;;;;;;2.88;0.65;;;10.50;99.90;;;;;;5074243;28;20119;-68
2022/11/04 00:41:26;;;;;;;2.70;0.60;;;10.50;99.90;;;;;;5074132;28;20049;-68
2022/11/04 00:43:53;;;;;;;2.55;0.45;;;10.50;99.90;;;;;;5073955;28;20047;-68
2022/11/04 00:46:22;;;;;;;1.98;0.40;;;10.60;99.90;;;;;;5074419;28;20498;-68
2022/11/04 00:48:50;;;;;;;2.42;0.40;;;10.60;99.90;;;;;;5074435;28;20370;-68
2022/11/04 00:51:20;;;;;;;4.53;0.60;;;10.60;99.90;;;;;;5071768;28;20867;-68
2022/11/04 00:53:50;;;;;;;4.67;0.40;;;10.60;99.90;;;;;;5072573;28;20062;-68
2022/11/04 00:56:16;;;;;;;2.28;0.50;;;10.60;99.90;;;;;;5053493;28;20305;-68
2022/11/04 00:58:49;;;;;;;2.92;0.40;;;10.60;99.90;;;;;;5072749;28;20076;-68
2022/11/04 01:01:17;;;;;;;4.07;0.60;;;10.60;99.90;;;;;;5072744;28;20460;-68
2022/11/04 01:03:45;;;;;;;7.38;1.10;;;10.60;99.90;;;;;;5073714;28;20040;-68
2022/11/04 01:06:23;;;;;;;4.13;0.75;;;10.60;99.90;;;;;;5065961;28;20037;-69
2022/11/04 01:09:04;;;;;;;3.03;0.50;;;10.60;99.90;;;;;;5073992;28;20076;-69
2022/11/04 01:11:32;;;;;;;2.53;0.70;;;10.60;99.90;;;;;;5072490;28;20121;-69
2022/11/04 01:13:59;;;;;;;1.83;0.45;;;10.60;99.90;;;;;;5069666;28;20044;-69
2022/11/04 01:16:26;;;;;;;5.15;0.60;;;10.60;99.90;;;;;;5072696;28;20044;-68
2022/11/04 01:19:07;;;;;;;3.47;0.47;;;10.60;99.90;;;;;;5055978;28;20047;-69
2022/11/04 01:21:33;;;;;;;;;;;10.60;99.90;;;;;;5070639;28;20060;-69
2022/11/04 01:24:00;;;;;;;5.15;0.60;;;10.60;99.90;;;;;;5069442;28;19920;-69
2022/11/04 01:26:27;;;;;;;1.90;0.40;;;10.60;99.90;;;;;;5073785;28;20035;-68
2022/11/04 01:28:55;;;;;;;4.10;0.88;;;10.60;99.90;;;;;;5055835;28;20045;-69
2022/11/04 01:31:25;;;;;;;3.72;0.70;;;10.70;99.90;;;;;;5073068;28;20037;-69
2022/11/04 01:33:58;;;;;;;3.65;0.55;;;10.70;99.90;;;;;;5070312;28;20098;-69
2022/11/04 01:36:25;;;;;;;3.40;0.75;;;10.70;99.90;;;;;;5072461;28;20093;-68
2022/11/04 01:38:56;;;;;;;3.40;0.52;;;10.70;99.90;;;;;;5070570;28;20131;-69
2022/11/04 01:41:28;;;;;;;3.72;0.57;;;10.70;99.90;;;;;;5043539;28;20383;-69
2022/11/04 01:44:15;;;;;;;6.13;0.65;;;10.70;99.90;;;;;;5071944;28;20076;-69
2022/11/04 01:46:49;;;;;;;3.42;0.50;;;10.70;99.90;;;;;;5072841;28;20038;-69
2022/11/04 01:49:26;;;;;;;2.60;0.63;;;10.70;99.90;;;;;;5073201;28;20047;-69
2022/11/04 01:51:57;;;;;;;2.88;0.60;;;10.80;99.90;;;;;;5070815;28;20036;-69
2022/11/04 01:54:24;;;;;;;3.10;1.50;;;10.80;99.90;;;;;;5071519;28;20060;-68
2022/11/04 01:56:55;;;;;;;6.23;1.00;;;10.70;99.90;;;;;;5068332;28;20549;-69
2022/11/04 01:59:27;;;;;;;7.23;1.13;;;10.80;99.90;;;;;;5069063;28;20032;-69
2022/11/04 02:01:59;;;;;;;2.38;0.80;;;10.70;99.90;;;;;;5071762;28;20375;-68
2022/11/04 02:04:30;;;;;;;2.85;0.47;;;10.70;99.90;;;;;;5073134;28;20121;-68
2022/11/04 02:06:59;;;;;;;5.97;0.80;;;10.70;99.90;;;;;;5072958;28;20120;-68
2022/11/04 02:09:31;;;;;;;5.10;0.60;;;10.70;99.90;;;;;;5072199;28;20112;-68
2022/11/04 02:14:47;;;;;;;6.28;0.60;;;10.70;99.90;;;;;;5072563;28;20383;-68
2022/11/04 02:18:07;;;;;;;4.15;0.80;;;10.60;99.90;;;;;;5055047;28;20637;-68
2022/11/04 02:20:59;;;;;;;4.82;0.70;;;10.60;99.90;;;;;;5055684;28;20051;-69
2022/11/04 02:23:46;;;;;;;5.88;0.93;;;10.60;99.90;;;;;;5071809;28;20133;-68
2022/11/04 02:26:51;;;;;;;7.07;2.20;;;10.60;99.90;;;;;;5072607;28;20079;-69
2022/11/04 02:29:42;;;;;;;7.38;2.60;;;10.60;99.90;;;;;;5071440;28;20044;-68
2022/11/04 02:32:17;;;;;;;6.18;2.55;;;10.60;99.90;;;;;;5072261;28;20355;-68
2022/11/04 02:35:07;;;;;;;5.60;2.78;;;10.70;99.90;;;;;;5071279;28;20036;-69
2022/11/04 02:37:57;;;;;;;11.65;3.50;;;10.60;99.90;;;;;;5061021;28;20053;-69
2022/11/04 02:40:59;;;;;;;5.07;2.33;;;10.60;99.90;;;;;;5071846;28;20490;-69
2022/11/04 02:43:38;;;;;;;6.55;2.20;;;10.70;99.90;;;;;;5065117;28;20037;-69
2022/11/04 02:46:23;;;;;;;8.85;2.75;;;10.70;99.90;;;;;;5072350;28;20459;-68
2022/11/04 02:49:12;;;;;;;8.40;3.53;;;10.70;99.90;;;;;;5068890;28;20032;-66
2022/11/04 02:51:58;;;;;;;4.32;1.63;;;10.70;99.90;;;;;;5051912;28;20072;-66
2022/11/04 02:54:47;;;;;;;5.45;0.85;;;10.70;99.90;;;;;;5072013;28;20055;-66
2022/11/04 02:57:20;;;;;;;4.37;1.00;;;10.70;99.90;;;;;;5071012;28;20517;-66
2022/11/04 03:00:00;;;;;;;4.90;0.90;;;10.70;99.90;;;;;;5054449;28;20102;-67
2022/11/04 03:02:42;;;;;;;2.28;0.80;;;10.60;99.90;;;;;;5070770;28;20056;-67
2022/11/04 03:05:19;;;;;;;6.72;1.02;;;10.70;99.90;;;;;;5039531;28;20029;-68
2022/11/04 03:07:51;;;;;;;4.65;0.98;;;10.70;99.90;;;;;;5034988;28;20116;-68
2022/11/04 03:10:39;;;;;;;3.92;0.77;;;10.70;99.90;;;;;;5071051;28;20056;-68
2022/11/04 03:13:13;;;;;;;4.43;0.90;;;10.70;99.90;;;;;;5070783;28;20052;-68
2022/11/04 03:15:51;;;;;;;7.88;1.17;;;10.60;99.90;;;;;;5070717;28;20393;-68
2022/11/04 03:18:56;;;;;;;5.90;0.82;;;10.60;99.90;;;;;;5068519;28;20091;-69
2022/11/04 03:21:25;;;;;;;8.02;0.98;;;10.60;99.90;;;;;;5054842;28;20052;-69
2022/11/04 03:23:52;;;;;;;6.53;1.25;;;10.60;99.90;;;;;;5074882;28;20084;-69
2022/11/04 03:26:27;;;;;;;6.25;0.95;;;10.60;99.90;;;;;;5075573;28;20506;-68
2022/11/04 03:29:24;;;;;;;5.45;1.20;;;10.60;99.90;;;;;;5075816;28;20044;-69
2022/11/04 03:32:25;;;;;;;4.05;0.80;;;10.60;99.90;;;;;;5058054;28;20040;-69
2022/11/04 03:34:52;;;;;;;3.92;0.90;;;10.60;99.90;;;;;;5075988;28;20111;-68
2022/11/04 03:37:20;;;;;;;2.22;0.40;;;10.60;99.90;;;;;;5075270;28;20037;-69
2022/11/04 03:39:56;;;;;;;4.38;0.82;;;10.50;99.90;;;;;;5058920;28;20036;-66
2022/11/04 03:42:23;;;;;;;2.97;0.55;;;10.50;99.90;;;;;;5074048;28;20057;-65
2022/11/04 03:44:52;;;;;;;4.45;0.80;;;10.40;99.90;;;;;;5074215;28;20049;-66
2022/11/04 03:47:22;;;;;;;3.75;0.80;;;10.40;99.90;;;;;;5063328;28;20086;-66
2022/11/04 03:50:06;;;;;;;1.58;0.40;;;10.30;99.90;;;;;;5073434;28;20109;-67
2022/11/04 03:52:34;;;;;;;4.75;0.85;;;10.30;99.90;;;;;;5072852;28;20041;-67
2022/11/04 03:55:03;;;;;;;4.20;0.50;;;10.20;99.90;;;;;;5075035;28;20459;-67
2022/11/04 03:57:58;;;;;;;3.97;0.80;;;10.20;99.90;;;;;;5074041;28;20039;-67
2022/11/04 04:00:28;;;;;;;1.75;0.50;;;10.10;99.90;;;;;;5075115;28;20040;-68
2022/11/04 04:03:17;;;;;;;3.03;0.60;;;10.10;99.90;;;;;;5057738;28;20036;-67
2022/11/04 04:06:14;;;;;;;2.47;0.55;;;10.10;99.90;;;;;;5073695;28;20123;-68
2022/11/04 04:08:44;;;;;;;2.80;0.57;;;10.10;99.90;;;;;;5072042;28;20049;-68
2022/11/04 04:11:30;;;;;;;3.00;0.95;;;10.10;99.90;;;;;;5074147;28;20051;-68
2022/11/04 04:14:37;;;;;;;4.55;0.70;;;10.10;99.90;;;;;;5073692;28;20153;-68
2022/11/04 04:17:16;;;;;;;3.53;0.73;;;10.10;99.90;;;;;;5074671;28;20045;-68
2022/11/04 04:19:51;;;;;;;1.63;0.60;;;10.10;99.90;;;;;;5056718;28;20435;-68
2022/11/04 04:22:27;;;;;;;3.08;0.82;;;10.10;99.90;;;;;;5072943;28;20049;-68
2022/11/04 04:27:44;;;;;;;4.50;0.90;;;10.10;99.90;;;;;;5073392;28;20049;-69
2022/11/04 04:30:15;;;;;;;3.88;0.52;;;10.10;99.90;;;;;;5073408;28;20041;-69
2022/11/04 04:32:55;;;;;;;4.88;0.80;;;10.00;99.90;;;;;;5074019;28;20123;-69
2022/11/04 04:35:42;;;;;;;4.28;0.60;;;10.00;99.90;;;;;;5069844;28;20049;-68
2022/11/04 04:47:18;;;;;;;2.90;1.05;;;9.80;99.90;;;;;;5073865;28;20052;-69
2022/11/04 04:50:00;;;;;;;4.68;1.30;;;9.80;99.90;;;;;;5071678;28;20477;-69
2022/11/04 04:52:52;;;;;;;3.95;0.93;;;9.70;99.90;;;;;;5071666;28;20130;-69
2022/11/04 04:55:27;;;;;;;3.63;1.08;;;9.70;99.90;;;;;;5074124;28;20173;-69
2022/11/04 04:57:54;;;;;;;3.65;1.00;;;9.70;99.90;;;;;;5072161;28;20033;-68
2022/11/04 05:00:23;;;;;;;4.20;1.48;;;9.70;99.90;;;;;;5073128;28;20037;-68
2022/11/04 05:02:51;;;;;;;4.90;1.63;;;9.70;99.90;;;;;;5073061;28;20059;-68
2022/11/04 05:05:18;;;;;;;3.70;1.52;;;9.70;99.90;;;;;;5073982;28;20037;-69
2022/11/04 05:07:45;;;;;;;4.43;2.10;;;9.70;99.90;;;;;;5072780;28;20048;-69
2022/11/04 05:10:13;;;;;;;4.97;1.48;;;9.70;99.90;;;;;;5072503;28;20052;-69
2022/11/04 05:15:30;;;;;;;4.57;1.70;;;9.60;99.90;;;;;;5072493;28;20045;-69
2022/11/04 05:17:59;;;;;;;2.78;1.40;;;9.60;99.90;;;;;;5073773;28;20063;-69
2022/11/04 05:20:32;;;;;;;4.28;0.77;;;9.70;99.90;;;;;;5071556;28;20055;-69
2022/11/04 05:22:59;;;;;;;2.33;1.17;;;9.70;99.90;;;;;;5070309;28;20045;-69
2022/11/04 05:25:30;;;;;;;2.80;1.25;;;9.60;99.90;;;;;;5055631;28;20154;-70
2022/11/04 05:28:00;;;;;;;1.52;0.60;;;9.60;99.90;;;;;;5073656;28;20048;-70
2022/11/04 05:30:30;;;;;;;4.70;0.70;;;9.60;99.90;;;;;;5054692;28;20401;-70
2022/11/04 05:32:57;;;;;;;1.97;0.80;;;9.60;99.90;;;;;;5073322;28;20047;-69
2022/11/04 05:35:27;;;;;;;1.90;0.85;;;9.50;99.90;;;;;;5073174;28;20036;-69
2022/11/04 05:37:55;;;;;;;2.63;0.90;;;9.40;99.90;;;;;;5071527;28;20198;-69
2022/11/04 05:40:22;;;;;;;1.70;0.70;;;9.30;99.90;;;;;;5055762;28;20036;-69
2022/11/04 05:42:48;;;;;;;3.08;0.60;;;9.30;99.90;;;;;;5072258;28;20041;-70
2022/11/04 05:45:17;;;;;;;2.00;0.40;;;9.30;99.90;;;;;;5073217;28;20043;-70
2022/11/04 05:47:46;;;;;;;3.75;0.60;;;9.20;99.90;;;;;;5073049;28;20036;-70
2022/11/04 05:50:21;;;;;;;3.88;0.73;;;9.20;99.90;;;;;;5071891;28;20058;-70
2022/11/04 05:52:50;;;;;;;3.08;0.60;;;9.10;99.90;;;;;;5069350;28;20037;-70
2022/11/04 05:55:21;;;;;;;2.45;0.50;;;9.10;99.90;;;;;;5073119;28;20044;-70
2022/11/04 05:57:49;;;;;;;1.35;0.50;;;9.00;99.90;;;;;;5071508;28;20044;-70
2022/11/04 06:00:20;;;;;;;3.08;0.60;;;8.90;99.90;;;;;;5072972;28;20072;-69
2022/11/04 06:02:46;;;;;;;3.95;0.80;;;8.90;99.90;;;;;;5069035;28;20133;-70
2022/11/04 06:05:13;;;;;;;2.63;1.17;;;8.80;99.90;;;;;;5072825;28;20047;-70
2022/11/04 06:07:40;;;;;;;7.40;2.53;;;8.70;99.90;;;;;;5071430;28;20063;-70
2022/11/04 06:10:07;;;;;;;7.55;3.97;;;8.70;99.90;;;;;;5054962;28;20043;-70
2022/11/04 06:12:33;;;;;;;8.52;4.78;;;8.70;99.90;;;;;;5054918;28;20046;-70
2022/11/04 06:14:59;;;;;;;6.95;4.28;;;8.60;99.90;;;;;;5071393;28;20049;-70
2022/11/04 06:17:26;;;;;;;7.43;5.45;;;8.60;99.90;;;;;;5071687;28;20055;-70
2022/11/04 06:19:52;;;;;;;9.05;5.18;;;8.60;99.90;;;;;;5072245;28;20442;-70
2022/11/04 06:22:27;;;;;;;8.30;4.60;;;8.60;99.90;;;;;;5069105;28;20394;-70
2022/11/04 06:24:53;;;;;;;8.63;4.25;;;8.70;99.90;;;;;;5071207;28;20106;-70
2022/11/04 06:27:23;;;;;;;6.00;3.72;;;8.70;99.90;;;;;;5055078;28;20036;-70
2022/11/04 06:29:52;;;;;;;9.88;3.88;;;8.70;99.90;;;;;;5071182;28;20113;-70
2022/11/04 06:32:21;;;;;;;7.88;4.78;;;8.80;99.90;;;;;;5054814;28;20032;-70
2022/11/04 06:34:51;;;;;;;6.38;3.92;;;8.80;99.90;;;;;;5069057;28;20048;-70
2022/11/04 06:37:17;;;;;;;6.32;3.17;;;8.80;99.90;;;;;;5048012;28;20072;-70
2022/11/04 06:39:45;;;;;;;8.18;3.28;;;8.90;99.90;;;;;;5054575;28;20038;-70
2022/11/04 06:42:11;;;;;;;2.70;1.08;;;9.00;99.90;;;;;;5072445;28;20037;-69
2022/11/04 06:44:42;;;;;;;4.15;1.50;;;9.00;99.90;;;;;;5072462;28;20049;-69
2022/11/04 06:47:10;;;;;;;6.45;1.50;;;9.10;99.90;;;;;;5071942;28;20049;-70
2022/11/04 06:49:36;;;;;;;4.50;1.63;;;9.10;99.90;;;;;;5054205;28;20044;-69
2022/11/04 06:52:03;;;;;;;6.97;1.50;;;9.20;99.90;;;;;;5068734;28;20478;-69
2022/11/04 06:54:33;;;;;;;3.65;1.42;;;9.20;99.90;;;;;;5071940;28;20053;-69
2022/11/04 06:57:01;;;;;;;3.88;1.10;;;9.20;99.90;;;;;;5068347;28;20029;-69
2022/11/04 06:59:29;;;;;;;2.80;0.95;;;9.20;99.90;;;;;;5070986;28;20041;-69
2022/11/04 07:01:57;;;;;;;4.07;1.02;;;9.30;99.90;;;;;;5038575;28;20448;-69
2022/11/04 07:04:26;;;;;;;2.35;1.05;;;9.30;99.90;;;;;;5068628;28;20044;-69
2022/11/04 07:06:52;;;;;;;4.60;1.75;;;9.30;99.90;;;;;;5054432;28;20037;-69
2022/11/04 07:09:18;;;;;;;4.63;2.10;;;9.30;99.90;;;;;;5070915;28;20037;-69
2022/11/04 07:11:45;;;;;;;3.80;1.55;;;9.30;99.90;;;;;;5071561;28;20040;-69
2022/11/04 07:14:14;;;;;;;3.78;1.30;;;9.30;99.90;;;;;;5054128;28;20051;-69
2022/11/04 07:16:41;;;;;;;3.15;1.40;;;9.30;99.90;;;;;;5070708;28;20489;-69
2022/11/04 07:19:09;;;;;;;3.10;1.30;;;9.30;99.90;;;;;;5071726;28;20048;-69
2022/11/04 07:21:35;;;;;;;2.83;1.20;;;9.30;99.90;;;;;;5065870;28;20181;-69
2022/11/04 07:24:01;;;;;;;3.67;1.80;;;9.30;99.90;;;;;;5070869;28;20423;-69
2022/11/04 07:26:29;;;;;;;6.30;2.25;;;9.30;99.90;;;;;;5071638;28;20374;-69
2022/11/04 07:28:59;;;;;;;5.93;2.25;;;9.30;99.90;;;;;;5071932;28;20486;-70
2022/11/04 07:31:29;;;;;;;5.60;2.72;;;9.30;99.90;;;;;;5067943;28;20039;-69
2022/11/04 07:34:02;;;;;;;5.00;1.67;;;9.30;99.90;;;;;;5054273;28;20471;-69
2022/11/04 07:36:37;;;;;;;5.73;1.23;;;9.30;99.90;;;;;;5069221;28;20045;-70
2022/11/04 07:39:19;;;;;;;3.83;1.00;;;9.30;99.90;;;;;;5069894;28;20052;-70
2022/11/04 07:41:53;;;;;;;6.90;1.60;;;9.30;99.90;;;;;;5071056;28;20043;-70
2022/11/04 07:44:21;;;;;;;3.33;1.40;;;9.30;99.90;;;;;;5053452;28;20036;-70
2022/11/04 07:46:49;;;;;;;4.63;1.00;;;9.30;99.90;;;;;;5054305;28;20032;-70
2022/11/04 07:49:17;;;;;;;4.35;1.10;;;9.30;99.90;;;;;;5071589;28;20036;-70
2022/11/04 07:51:43;;;;;;;3.92;1.50;;;9.30;99.90;;;;;;5068096;28;20080;-70
2022/11/04 07:54:11;;;;;;;3.33;1.50;;;9.30;99.90;;;;;;5068818;28;20056;-71
2022/11/04 07:56:40;;;;;;;5.90;1.55;;;9.30;99.90;;;;;;5071044;28;20044;-69
2022/11/04 07:59:06;;;;;;;2.70;1.10;;;9.40;99.90;;;;;;5070471;28;20047;-69
2022/11/04 08:01:35;;;;;;;3.42;1.48;;;9.40;99.90;;;;;;5065165;28;20109;-70
2022/11/04 08:04:01;;;;;;;5.45;2.38;;;9.50;99.90;;;;;;5072779;28;20125;-69
2022/11/04 08:06:29;;;;;;;6.30;1.73;;;9.60;99.90;;;;;;5053935;28;20559;-70
2022/11/04 08:08:57;;;;;;;6.68;1.70;;;9.70;99.90;;;;;;5073820;28;20070;-70
2022/11/04 08:11:29;;;;;;;5.30;1.40;;;9.90;99.90;;;;;;5073578;28;20037;-70
2022/11/04 08:13:55;;;;;;;3.70;1.35;;;10.20;99.90;;;;;;5074807;28;20067;-69
2022/11/04 08:16:24;;;;;;;3.97;1.40;;;10.30;99.90;;;;;;5073381;28;20048;-70
2022/11/04 08:18:53;;;;;;;2.60;1.33;;;10.40;99.90;;;;;;5074417;28;20206;-69
2022/11/04 08:21:21;;;;;;;4.53;1.58;;;10.50;99.90;;;;;;5065142;28;20563;-70
2022/11/04 08:23:50;;;;;;;4.07;1.60;;;10.60;99.90;;;;;;5074215;28;20394;-69
2022/11/04 08:26:25;;;;;;;5.93;1.60;;;10.80;99.90;;;;;;5074468;28;20486;-69
2022/11/04 08:28:52;;;;;;;4.22;2.10;;;10.80;99.90;;;;;;5073217;28;20041;-70
2022/11/04 08:31:27;;;;;;;5.55;2.63;;;10.90;99.90;;;;;;5074392;28;20032;-70
2022/11/04 08:34:00;;;;;;;5.43;2.58;;;10.90;99.90;;;;;;5071031;28;20080;-70
2022/11/04 08:36:35;;;;;;;2.80;1.52;;;11.00;99.90;;;;;;5074336;28;20040;-69
2022/11/04 08:39:07;;;;;;;5.97;1.67;;;11.10;99.90;;;;;;5073111;28;20044;-70
2022/11/04 08:41:36;;;;;;;5.75;1.55;;;11.40;99.90;;;;;;5071372;28;20123;-70
2022/11/04 08:44:03;;;;;;;4.57;1.42;;;11.80;99.90;;;;;;5053485;28;20097;-69
2022/11/04 08:46:37;;;;;;;6.85;1.90;;;12.60;99.90;;;;;;5074107;28;20119;-70
2022/11/04 08:49:05;;;;;;;8.30;1.50;;;13.50;99.90;;;;;;5072828;28;20103;-70
2022/11/04 08:51:33;;;;;;;3.00;0.82;;;14.50;99.90;;;;;;5068054;28;20116;-71
2022/11/04 08:54:00;;;;;;;8.68;1.38;;;15.20;99.90;;;;;;5072739;28;20160;-71
2022/11/04 08:56:33;;;;;;;6.07;1.48;;;15.90;99.90;;;;;;5072246;28;20056;-70
2022/11/04 08:59:03;;;;;;;4.07;0.82;;;16.30;99.90;;;;;;5069932;28;20037;-71
2022/11/04 09:01:45;;;;;;;6.15;1.25;;;16.70;99.90;;;;;;5072603;28;20032;-71
2022/11/04 09:04:15;;;;;;;4.20;0.75;;;17.10;99.90;;;;;;5072230;28;20047;-71
2022/11/04 09:06:49;;;;;;;2.92;0.90;;;17.50;99.90;;;;;;5073581;28;20056;-71
2022/11/04 09:09:18;;;;;;;3.38;1.23;;;18.00;99.90;;;;;;5072654;28;20098;-71
2022/11/04 09:11:45;;;;;;;2.67;0.98;;;18.40;99.90;;;;;;5055727;28;20397;-71
2022/11/04 09:14:13;;;;;;;2.88;1.10;;;18.80;99.90;;;;;;5053173;28;20072;-71
2022/11/04 09:16:41;;;;;;;2.05;0.70;;;19.30;99.90;;;;;;5072155;28;20040;-71
2022/11/04 09:19:07;;;;;;;2.60;0.70;;;19.90;99.90;;;;;;5072515;28;20091;-71
2022/11/04 09:21:33;;;;;;;3.22;1.00;;;20.20;99.90;;;;;;5071199;28;20114;-71
2022/11/04 09:24:07;;;;;;;5.13;1.20;;;20.10;99.90;;;;;;5072894;28;20203;-71
2022/11/04 09:26:33;;;;;;;2.03;0.70;;;20.20;99.90;;;;;;5072309;28;20072;-71
2022/11/04 09:29:00;;;;;;;1.48;0.57;;;20.50;99.90;;;;;;5072726;28;20040;-71
2022/11/04 09:31:30;;;;;;;3.40;0.70;;;20.70;99.90;;;;;;5055816;28;20115;-71
2022/11/04 09:33:56;;;;;;;4.57;0.70;;;21.10;99.90;;;;;;5072403;28;20117;-71
2022/11/04 09:36:42;;;;;;;2.72;1.15;;;21.50;99.90;;;;;;5072294;28;20043;-71
2022/11/04 09:39:10;;;;;;;2.22;0.60;;;22.00;99.90;;;;;;5070615;28;20052;-71
2022/11/04 09:42:01;;;;;;;3.20;0.80;;;22.10;99.90;;;;;;5072904;28;20119;-71
2022/11/04 09:44:39;;;;;;;2.03;0.57;;;22.20;99.90;;;;;;5072801;28;20056;-70
2022/11/04 09:47:10;;;;;;;2.83;0.90;;;22.40;99.90;;;;;;5073002;28;20040;-70
2022/11/04 09:49:46;;;;;;;3.78;0.88;;;22.70;99.90;;;;;;5073061;28;20106;-70
2022/11/04 09:52:22;;;;;;;3.05;0.85;;;23.10;99.90;;;;;;5067488;28;20101;-71
2022/11/04 09:55:20;;;;;;;1.90;0.57;;;23.30;99.90;;;;;;5054905;28;20660;-71
2022/11/04 09:57:57;;;;;;;4.07;0.95;;;23.30;99.90;;;;;;5060760;28;20536;-71
2022/11/04 10:00:24;;;;;;;3.45;0.90;;;23.40;99.90;;;;;;5073041;28;20032;-71
2022/11/04 10:03:06;;;;;;;4.90;1.02;;;23.30;99.90;;;;;;5071426;28;20044;-71
2022/11/04 10:06:19;;;;;;;3.22;0.93;;;23.20;99.90;;;;;;5072784;28;20539;-71
2022/11/04 10:09:05;;;;;;;2.80;0.80;;;23.20;99.90;;;;;;5071237;28;20032;-71
2022/11/04 10:12:12;;;;;;;3.70;0.93;;;22.80;99.90;;;;;;5071962;28;20041;-71
2022/11/04 10:15:17;;;;;;;3.55;1.08;;;21.80;99.90;;;;;;5070970;28;20082;-71
2022/11/04 10:17:54;;;;;;;2.75;1.02;;;21.30;99.90;;;;;;5072267;28;20039;-70
2022/11/04 10:21:00;;;;;;;4.20;1.40;;;21.10;99.90;;;;;;5071139;28;20051;-71
2022/11/04 10:23:57;;;;;;;5.80;1.33;;;21.40;99.90;;;;;;5070407;28;20370;-71
2022/11/04 10:26:45;;;;;;;4.78;0.98;;;22.10;99.90;;;;;;5052543;28;20088;-71
2022/11/04 10:29:27;;;;;;;3.63;0.98;;;22.40;99.90;;;;;;5071832;28;20036;-71
2022/11/04 10:32:00;;;;;;;3.22;1.00;;;22.90;99.90;;;;;;5072058;28;20044;-71
2022/11/04 10:34:45;;;;;;;4.45;1.45;;;22.90;99.90;;;;;;5053634;28;20097;-71
2022/11/04 10:37:13;;;;;;;10.02;5.20;;;21.90;99.90;;;;;;5045267;28;20072;-71
2022/11/04 10:39:47;;;;;;;13.68;9.63;;;21.50;99.90;;;;;;5068216;28;20044;-71
2022/11/04 10:42:21;;;;;;;5.40;2.22;;;21.00;99.90;;;;;;5072015;28;20041;-71
2022/11/04 10:44:50;;;;;;;4.97;2.70;;;20.20;99.90;;;;;;5070218;28;20080;-70
2022/11/04 10:47:19;;;;;;;6.53;3.30;;;19.10;99.90;;;;;;5066094;28;20034;-70
2022/11/04 10:50:18;;;;;;;9.10;4.80;;;17.90;99.90;;;;;;5054018;28;20098;-69
2022/11/04 10:53:25;;;;;;;2.70;1.10;;;16.70;99.90;;;;;;5052911;28;20052;-69
2022/11/04 10:56:02;;;;;;;23.02;15.75;;;16.10;99.90;;;;;;5071445;28;20127;-71
2022/11/04 10:58:38;;;;;;;34.03;18.33;;;16.10;99.90;;;;;;5070310;28;20048;-70
2022/11/04 11:01:27;;;;;;;13.57;6.90;;;16.10;99.90;;;;;;5070461;28;20052;-70
2022/11/04 11:03:54;;;;;;;4.93;2.20;;;16.00;99.90;;;;;;5070275;28;20043;-71
2022/11/04 11:06:29;;;;;;;4.35;1.60;;;16.00;99.90;;;;;;5069408;28;20443;-71
2022/11/04 11:09:21;;;;;;;4.47;1.25;;;15.70;99.90;;;;;;5071584;28;20036;-71
2022/11/04 11:11:50;;;;;;;4.68;1.30;;;15.60;99.90;;;;;;5069952;28;20111;-70
2022/11/04 11:14:18;;;;;;;3.95;0.80;;;15.50;99.90;;;;;;5069892;28;20048;-70
2022/11/04 11:16:47;;;;;;;6.13;1.00;;;15.40;99.90;;;;;;5068605;28;20087;-70
2022/11/04 11:19:25;;;;;;;4.35;1.20;;;15.20;99.90;;;;;;5071359;28;20044;-70
2022/11/04 11:21:55;;;;;;;7.47;2.10;;;15.50;99.90;;;;;;5047962;28;20044;-70
2022/11/04 11:24:26;;;;;;;3.80;0.75;;;15.80;99.90;;;;;;5066797;28;20032;-70
2022/11/04 11:27:14;;;;;;;4.03;1.73;;;15.90;99.90;;;;;;5070617;28;20066;-70
2022/11/04 11:29:52;;;;;;;4.40;0.90;;;15.80;99.90;;;;;;5071271;28;20072;-70
2022/11/04 11:32:54;;;;;;;4.45;1.10;;;15.70;99.90;;;;;;5068212;28;20044;-70
2022/11/04 11:35:26;;;;;;;2.80;0.77;;;15.50;99.90;;;;;;5070924;28;20048;-70
2022/11/04 11:37:54;;;;;;;3.92;0.82;;;15.20;99.90;;;;;;5069719;28;20040;-70
2022/11/04 11:40:34;;;;;;;3.80;0.77;;;14.90;99.90;;;;;;5068791;28;20106;-70
2022/11/04 11:43:01;;;;;;;2.72;0.32;;;14.60;99.90;;;;;;5074409;28;20047;-70
2022/11/04 11:45:33;;;;;;;2.92;0.60;;;14.20;99.90;;;;;;5072776;28;20041;-69
2022/11/04 11:48:01;;;;;;;2.30;0.60;;;13.90;99.90;;;;;;5055954;28;20048;-70
2022/11/04 11:50:37;;;;;;;3.80;2.05;;;13.60;99.90;;;;;;5073634;28;20045;-70
2022/11/04 11:53:16;;;;;;;3.90;0.98;;;13.40;99.90;;;;;;5071794;28;20115;-70
2022/11/04 11:55:57;;;;;;;5.85;1.25;;;13.30;99.90;;;;;;5071051;28;20411;-69
2022/11/04 11:58:40;;;;;;;4.40;0.80;;;13.10;99.90;;;;;;5073407;28;20482;-69
2022/11/04 12:04:41;;;;;;;5.75;1.50;;;12.90;99.90;;;;;;5073773;28;20446;-70
2022/11/04 12:07:43;;;;;;;5.50;1.00;;;12.80;99.90;;;;;;5073529;28;20045;-70
2022/11/04 12:10:15;;;;;;;6.13;1.10;;;12.80;99.90;;;;;;5073767;28;20073;-70
2022/11/04 12:13:04;;;;;;;7.70;1.15;;;12.90;99.90;;;;;;5074754;28;20362;-70
2022/11/04 12:15:58;;;;;;;6.82;2.22;;;13.20;99.90;;;;;;5073002;28;20452;-70
2022/11/04 12:18:45;;;;;;;8.20;2.63;;;13.40;99.90;;;;;;5057266;28;20120;-70
2022/11/04 12:21:36;;;;;;;6.05;2.58;;;13.50;99.90;;;;;;5072713;28;20471;-69
2022/11/04 12:24:38;;;;;;;7.93;1.20;;;13.60;99.90;;;;;;5072409;28;20465;-71
2022/11/04 12:27:33;;;;;;;4.47;0.90;;;13.60;99.90;;;;;;5073236;28;20560;-72
2022/11/04 12:30:17;;;;;;;7.25;1.95;;;13.50;99.90;;;;;;5073369;28;20033;-72
2022/11/04 12:33:08;;;;;;;7.35;1.13;;;13.40;99.90;;;;;;5073276;28;20111;-71
2022/11/04 12:36:23;;;;;;;5.07;0.77;;;13.10;99.90;;;;;;5074236;28;20488;-73
2022/11/04 12:39:11;;;;;;;5.40;0.77;;;12.80;99.90;;;;;;5072921;28;20040;-72
2022/11/04 12:41:57;;;;;;;4.13;1.30;;;12.60;99.90;;;;;;5054837;28;20039;-72
2022/11/04 12:44:29;;;;;;;5.88;0.90;;;12.60;99.90;;;;;;5070049;28;20517;-72
2022/11/04 12:46:58;;;;;;;6.05;1.00;;;12.70;99.90;;;;;;5072169;28;20098;-72
2022/11/04 12:49:48;;;;;;;2.85;0.95;;;12.70;99.90;;;;;;5072978;28;20041;-70
2022/11/04 12:53:01;;;;;;;4.38;1.20;;;12.70;99.90;;;;;;5071341;28;20067;-71
2022/11/04 12:55:46;;;;;;;8.55;1.10;;;12.80;99.90;;;;;;5072919;28;20413;-71
2022/11/04 12:58:37;;;;;;;4.45;1.10;;;12.90;99.90;;;;;;5073935;28;20431;-71
2022/11/04 13:01:11;;;;;;;6.97;1.30;;;13.00;99.90;;;;;;5073959;28;20433;-71
2022/11/04 13:03:53;;;;;;;10.45;1.98;;;13.00;99.90;;;;;;5072211;28;20521;-71
2022/11/04 13:06:27;;;;;;;5.03;0.82;;;13.00;99.90;;;;;;5072155;28;20036;-71
2022/11/04 13:09:04;;;;;;;3.80;1.00;;;13.00;99.90;;;;;;5073643;28;20033;-71
2022/11/04 13:11:50;;;;;;;4.18;0.82;;;13.00;99.90;;;;;;5072240;28;20129;-72
2022/11/04 13:14:31;;;;;;;5.43;1.20;;;13.10;99.90;;;;;;5072529;28;20156;-71
2022/11/04 13:17:06;;;;;;;3.78;0.80;;;13.20;99.90;;;;;;5072462;28;20045;-71
2022/11/04 13:19:50;;;;;;;6.82;1.48;;;13.30;99.90;;;;;;5072289;28;20134;-71
2022/11/04 13:22:26;;;;;;;4.40;1.10;;;13.30;99.90;;;;;;5069852;28;20076;-71
2022/11/04 13:25:41;;;;;;;6.63;1.20;;;13.30;99.90;;;;;;5072002;28;20064;-70
2022/11/04 13:28:15;;;;;;;3.53;1.08;;;13.20;99.90;;;;;;5064155;28;20466;-71
2022/11/04 13:30:55;;;;;;;4.78;1.20;;;13.10;99.90;;;;;;5072934;28;20134;-70
2022/11/04 13:33:45;;;;;;;6.90;1.40;;;13.10;99.90;;;;;;5073247;28;20089;-71
2022/11/04 13:36:47;;;;;;;6.00;1.60;;;13.00;99.90;;;;;;5073103;28;20408;-71
2022/11/04 13:39:32;;;;;;;5.53;1.02;;;12.90;99.90;;;;;;5071870;28;20032;-71
2022/11/04 13:42:19;;;;;;;7.25;1.15;;;12.80;99.90;;;;;;5071807;28;20048;-71
2022/11/04 13:44:49;;;;;;;6.85;1.10;;;12.70;99.90;;;;;;5072870;28;20049;-70
2022/11/04 13:47:23;;;;;;;4.20;0.80;;;12.70;99.90;;;;;;5071149;28;20044;-70
2022/11/04 13:49:54;;;;;;;3.05;1.00;;;12.60;99.90;;;;;;5070849;28;20045;-70
2022/11/04 13:52:28;;;;;;;8.48;1.02;;;12.50;99.90;;;;;;5068939;28;20044;-71
2022/11/04 13:55:05;;;;;;;4.78;1.48;;;12.50;99.90;;;;;;5052643;28;20047;-70
2022/11/04 13:57:58;;;;;;;4.22;0.98;;;12.50;99.90;;;;;;5072638;28;20101;-71
2022/11/04 14:00:32;;;;;;;3.65;0.93;;;12.50;99.90;;;;;;5055144;28;20107;-70
2022/11/04 14:03:19;;;;;;;4.22;0.95;;;12.40;99.90;;;;;;5055124;28;20177;-71
2022/11/04 14:05:58;;;;;;;3.53;0.77;;;12.40;99.90;;;;;;5071787;28;20093;-71
2022/11/04 14:08:24;;;;;;;7.20;1.08;;;12.40;99.90;;;;;;5071000;28;20389;-71
2022/11/04 14:11:04;;;;;;;5.03;0.98;;;12.40;99.90;;;;;;5072431;28;20032;-71
2022/11/04 14:13:43;;;;;;;9.13;1.25;;;12.40;99.90;;;;;;5070782;28;20048;-71